sensor_id;sensor_type;location;lat;lon;timestamp;pressure;altitude;pressure_sealevel;temperature;humidity
26865;BME280;40618;51.166;10.322;2022-09-09T00:00:32;96934.56;;;14.16;70.30
26865;BME280;40618;51.166;10.322;2022-09-09T00:03:30;96931.28;;;14.12;70.35
26865;BME280;40618;51.166;10.322;2022-09-09T00:09:18;96928.81;;;14.09;70.34
26865;BME280;40618;51.166;10.322;2022-09-09T00:11:51;96923.72;;;14.08;70.33
26865;BME280;40618;51.166;10.322;2022-09-09T00:14:42;96925.47;;;14.07;70.41
26865;BME280;40618;51.166;10.322;2022-09-09T00:17:39;96914.06;;;14.10;70.20
26865;BME280;40618;51.166;10.322;2022-09-09T00:23:00;96908.69;;;14.13;70.30
26865;BME280;40618;51.166;10.322;2022-09-09T00:25:34;96899.06;;;14.15;70.30
26865;BME280;40618;51.166;10.322;2022-09-09T00:28:23;96900.06;;;14.12;70.11
26865;BME280;40618;51.166;10.322;2022-09-09T00:30:52;96904.56;;;14.09;70.57
26865;BME280;40618;51.166;10.322;2022-09-09T00:33:23;96898.75;;;14.03;70.16
26865;BME280;40618;51.166;10.322;2022-09-09T00:35:54;96900.53;;;14.03;70.33
26865;BME280;40618;51.166;10.322;2022-09-09T00:38:36;96902.22;;;14.04;70.22
26865;BME280;40618;51.166;10.322;2022-09-09T00:52:32;96900.38;;;14.06;70.40
26865;BME280;40618;51.166;10.322;2022-09-09T00:57:57;96897.84;;;14.04;70.46
26865;BME280;40618;51.166;10.322;2022-09-09T01:00:33;96898.53;;;14.08;70.82
26865;BME280;40618;51.166;10.322;2022-09-09T01:06:33;96897.59;;;14.09;70.44
26865;BME280;40618;51.166;10.322;2022-09-09T01:12:16;96906.03;;;13.97;70.75
26865;BME280;40618;51.166;10.322;2022-09-09T01:14:51;96910.75;;;13.90;70.52
26865;BME280;40618;51.166;10.322;2022-09-09T01:17:31;96904.03;;;13.86;70.46
26865;BME280;40618;51.166;10.322;2022-09-09T01:20:21;96905.25;;;13.79;70.81
26865;BME280;40618;51.166;10.322;2022-09-09T01:28:55;96898.59;;;13.73;70.74
26865;BME280;40618;51.166;10.322;2022-09-09T01:31:31;96894.31;;;13.72;70.74
26865;BME280;40618;51.166;10.322;2022-09-09T01:34:01;96896.91;;;13.72;70.81
26865;BME280;40618;51.166;10.322;2022-09-09T01:36:49;96896.91;;;13.72;70.80
26865;BME280;40618;51.166;10.322;2022-09-09T01:39:18;96896.78;;;13.75;71.17
26865;BME280;40618;51.166;10.322;2022-09-09T01:41:45;96907.03;;;13.78;71.13
26865;BME280;40618;51.166;10.322;2022-09-09T01:44:11;96904.25;;;13.81;71.02
26865;BME280;40618;51.166;10.322;2022-09-09T01:46:37;96905.09;;;13.82;71.13
26865;BME280;40618;51.166;10.322;2022-09-09T01:49:05;96903.25;;;13.84;71.35
26865;BME280;40618;51.166;10.322;2022-09-09T01:51:33;96898.88;;;13.84;71.05
26865;BME280;40618;51.166;10.322;2022-09-09T01:54:00;96906.56;;;13.87;71.43
26865;BME280;40618;51.166;10.322;2022-09-09T02:08:47;96898.56;;;13.91;71.59
26865;BME280;40618;51.166;10.322;2022-09-09T02:11:16;96892.38;;;13.93;71.25
26865;BME280;40618;51.166;10.322;2022-09-09T02:13:46;96899.41;;;13.91;71.36
26865;BME280;40618;51.166;10.322;2022-09-09T02:16:37;96901.19;;;13.91;71.16
26865;BME280;40618;51.166;10.322;2022-09-09T02:19:18;96910.59;;;13.93;71.24
26865;BME280;40618;51.166;10.322;2022-09-09T02:22:06;96908.66;;;13.97;71.46
26865;BME280;40618;51.166;10.322;2022-09-09T02:24:36;96908.59;;;13.98;71.35
26865;BME280;40618;51.166;10.322;2022-09-09T02:27:06;96911.03;;;14.01;71.38
26865;BME280;40618;51.166;10.322;2022-09-09T02:29:37;96907.44;;;14.04;71.30
26865;BME280;40618;51.166;10.322;2022-09-09T02:32:14;96907.16;;;14.09;71.30
26865;BME280;40618;51.166;10.322;2022-09-09T02:34:45;96902.75;;;14.11;71.46
26865;BME280;40618;51.166;10.322;2022-09-09T02:37:17;96909.59;;;14.12;71.41
26865;BME280;40618;51.166;10.322;2022-09-09T02:39:46;96909.69;;;14.10;71.08
26865;BME280;40618;51.166;10.322;2022-09-09T02:42:13;96901.88;;;14.10;71.26
26865;BME280;40618;51.166;10.322;2022-09-09T02:44:40;96895.94;;;14.08;71.41
26865;BME280;40618;51.166;10.322;2022-09-09T02:50:03;96900.38;;;14.06;71.02
26865;BME280;40618;51.166;10.322;2022-09-09T02:55:39;96910.13;;;14.02;71.16
26865;BME280;40618;51.166;10.322;2022-09-09T02:58:12;96905.91;;;14.00;71.17
26865;BME280;40618;51.166;10.322;2022-09-09T03:00:46;96907.72;;;13.98;71.33
26865;BME280;40618;51.166;10.322;2022-09-09T03:03:14;96905.22;;;13.96;71.38
26865;BME280;40618;51.166;10.322;2022-09-09T03:05:42;96905.06;;;13.99;71.43
26865;BME280;40618;51.166;10.322;2022-09-09T03:08:08;96908.50;;;14.00;71.18
26865;BME280;40618;51.166;10.322;2022-09-09T03:10:34;96907.56;;;14.01;71.19
26865;BME280;40618;51.166;10.322;2022-09-09T03:13:00;96904.06;;;14.02;71.32
26865;BME280;40618;51.166;10.322;2022-09-09T03:15:26;96909.25;;;14.02;71.20
26865;BME280;40618;51.166;10.322;2022-09-09T03:17:57;96913.63;;;14.01;71.36
26865;BME280;40618;51.166;10.322;2022-09-09T03:20:24;96913.63;;;14.01;71.46
26865;BME280;40618;51.166;10.322;2022-09-09T03:22:52;96911.13;;;14.00;71.52
26865;BME280;40618;51.166;10.322;2022-09-09T03:25:19;96908.50;;;14.00;71.33
26865;BME280;40618;51.166;10.322;2022-09-09T03:27:45;96909.50;;;13.97;71.33
26865;BME280;40618;51.166;10.322;2022-09-09T03:30:11;96905.31;;;13.95;71.22
26865;BME280;40618;51.166;10.322;2022-09-09T03:32:37;96908.06;;;13.92;71.47
26865;BME280;40618;51.166;10.322;2022-09-09T03:35:03;96908.06;;;13.92;71.55
26865;BME280;40618;51.166;10.322;2022-09-09T03:37:29;96904.63;;;13.91;71.44
26865;BME280;40618;51.166;10.322;2022-09-09T03:39:55;96903.88;;;13.89;71.33
26865;BME280;40618;51.166;10.322;2022-09-09T03:42:21;96898.75;;;13.87;71.27
26865;BME280;40618;51.166;10.322;2022-09-09T03:44:47;96899.66;;;13.86;71.52
26865;BME280;40618;51.166;10.322;2022-09-09T03:47:20;96890.06;;;13.87;71.39
26865;BME280;40618;51.166;10.322;2022-09-09T03:49:47;96887.47;;;13.87;71.66
26865;BME280;40618;51.166;10.322;2022-09-09T03:52:13;96896.16;;;13.87;71.53
26865;BME280;40618;51.166;10.322;2022-09-09T03:54:40;96886.56;;;13.88;71.71
26865;BME280;40618;51.166;10.322;2022-09-09T03:57:08;96887.38;;;13.88;71.68
26865;BME280;40618;51.166;10.322;2022-09-09T03:59:35;96885.72;;;13.87;71.65
26865;BME280;40618;51.166;10.322;2022-09-09T04:02:02;96891.06;;;13.84;71.43
26865;BME280;40618;51.166;10.322;2022-09-09T04:04:28;96884.22;;;13.83;71.50
26865;BME280;40618;51.166;10.322;2022-09-09T04:06:53;96891.94;;;13.85;71.58
26865;BME280;40618;51.166;10.322;2022-09-09T04:09:19;96895.38;;;13.85;72.04
26865;BME280;40618;51.166;10.322;2022-09-09T04:11:45;96890.34;;;13.82;71.56
26865;BME280;40618;51.166;10.322;2022-09-09T04:14:11;96888.72;;;13.80;71.68
26865;BME280;40618;51.166;10.322;2022-09-09T04:16:38;96885.34;;;13.78;71.63
26865;BME280;40618;51.166;10.322;2022-09-09T04:19:04;96885.84;;;13.68;71.68
26865;BME280;40618;51.166;10.322;2022-09-09T04:21:32;96892.97;;;13.65;71.69
26865;BME280;40618;51.166;10.322;2022-09-09T04:23:57;96896.56;;;13.62;71.64
26865;BME280;40618;51.166;10.322;2022-09-09T04:26:23;96894.03;;;13.61;71.54
26865;BME280;40618;51.166;10.322;2022-09-09T04:28:49;96903.75;;;13.57;71.90
26865;BME280;40618;51.166;10.322;2022-09-09T04:31:18;96903.09;;;13.53;71.84
26865;BME280;40618;51.166;10.322;2022-09-09T04:33:46;96901.41;;;13.52;71.71
26865;BME280;40618;51.166;10.322;2022-09-09T04:36:13;96897.19;;;13.50;71.80
26865;BME280;40618;51.166;10.322;2022-09-09T04:38:39;96904.16;;;13.49;71.80
26865;BME280;40618;51.166;10.322;2022-09-09T04:41:05;96914.69;;;13.46;72.05
26865;BME280;40618;51.166;10.322;2022-09-09T04:43:32;96911.44;;;13.43;71.82
26865;BME280;40618;51.166;10.322;2022-09-09T04:45:58;96903.84;;;13.38;71.95
26865;BME280;40618;51.166;10.322;2022-09-09T04:48:26;96904.84;;;13.35;72.08
26865;BME280;40618;51.166;10.322;2022-09-09T04:51:06;96904.13;;;13.32;72.16
26865;BME280;40618;51.166;10.322;2022-09-09T04:53:34;96904.22;;;13.30;72.14
26865;BME280;40618;51.166;10.322;2022-09-09T04:56:08;96907.81;;;13.28;72.40
26865;BME280;40618;51.166;10.322;2022-09-09T04:58:35;96911.47;;;13.24;72.05
26865;BME280;40618;51.166;10.322;2022-09-09T05:01:17;96909.78;;;13.23;72.25
26865;BME280;40618;51.166;10.322;2022-09-09T05:03:45;96909.78;;;13.23;72.24
26865;BME280;40618;51.166;10.322;2022-09-09T05:06:13;96904.56;;;13.23;72.33
26865;BME280;40618;51.166;10.322;2022-09-09T05:08:42;96906.34;;;13.22;72.30
26865;BME280;40618;51.166;10.322;2022-09-09T05:13:41;96910.47;;;13.26;72.32
26865;BME280;40618;51.166;10.322;2022-09-09T05:16:07;96900.25;;;13.23;72.32
26865;BME280;40618;51.166;10.322;2022-09-09T05:18:40;96900.25;;;13.23;72.45
26865;BME280;40618;51.166;10.322;2022-09-09T05:21:06;96902.84;;;13.23;72.48
26865;BME280;40618;51.166;10.322;2022-09-09T05:23:33;96906.34;;;13.22;72.68
26865;BME280;40618;51.166;10.322;2022-09-09T05:26:00;96908.88;;;13.24;72.73
26865;BME280;40618;51.166;10.322;2022-09-09T05:28:28;96907.81;;;13.28;72.83
26865;BME280;40618;51.166;10.322;2022-09-09T05:31:02;96918.13;;;13.29;72.88
26865;BME280;40618;51.166;10.322;2022-09-09T05:33:30;96911.94;;;13.32;72.50
26865;BME280;40618;51.166;10.322;2022-09-09T05:36:05;96916.09;;;13.36;72.83
26865;BME280;40618;51.166;10.322;2022-09-09T05:38:34;96921.03;;;13.41;72.82
26865;BME280;40618;51.166;10.322;2022-09-09T05:41:01;96923.34;;;13.47;73.04
26865;BME280;40618;51.166;10.322;2022-09-09T05:43:28;96918.97;;;13.47;72.71
26865;BME280;40618;51.166;10.322;2022-09-09T05:46:07;96919.69;;;13.51;72.95
26865;BME280;40618;51.166;10.322;2022-09-09T05:48:39;96920.31;;;13.56;72.98
26865;BME280;40618;51.166;10.322;2022-09-09T05:51:08;96922.66;;;13.61;72.96
26865;BME280;40618;51.166;10.322;2022-09-09T05:53:37;96926.88;;;13.63;72.89
26865;BME280;40618;51.166;10.322;2022-09-09T05:56:04;96926.78;;;13.65;72.97
26865;BME280;40618;51.166;10.322;2022-09-09T05:58:33;96930.28;;;13.64;72.73
26865;BME280;40618;51.166;10.322;2022-09-09T06:01:04;96926.03;;;13.63;72.91
26865;BME280;40618;51.166;10.322;2022-09-09T06:03:35;96923.47;;;13.61;72.91
26865;BME280;40618;51.166;10.322;2022-09-09T06:06:04;96927.84;;;13.61;73.02
26865;BME280;40618;51.166;10.322;2022-09-09T06:08:32;96941.78;;;13.60;73.14
26865;BME280;40618;51.166;10.322;2022-09-09T06:11:19;96940.03;;;13.60;73.05
26865;BME280;40618;51.166;10.322;2022-09-09T06:13:47;96943.53;;;13.59;72.87
26865;BME280;40618;51.166;10.322;2022-09-09T06:16:18;96942.63;;;13.60;73.23
26865;BME280;40618;51.166;10.322;2022-09-09T06:18:45;96932.91;;;13.64;73.13
26865;BME280;40618;51.166;10.322;2022-09-09T06:21:19;96942.38;;;13.65;73.18
26865;BME280;40618;51.166;10.322;2022-09-09T06:23:46;96951.72;;;13.69;73.00
26865;BME280;40618;51.166;10.322;2022-09-09T06:26:21;96939.50;;;13.71;73.08
26865;BME280;40618;51.166;10.322;2022-09-09T06:28:53;96941.16;;;13.72;73.11
26865;BME280;40618;51.166;10.322;2022-09-09T06:31:22;96941.06;;;13.74;73.02
26865;BME280;40618;51.166;10.322;2022-09-09T06:33:50;96941.94;;;13.74;73.32
26865;BME280;40618;51.166;10.322;2022-09-09T06:36:28;96949.66;;;13.76;73.01
26865;BME280;40618;51.166;10.322;2022-09-09T06:38:56;96957.47;;;13.76;73.35
26865;BME280;40618;51.166;10.322;2022-09-09T06:41:23;96947.78;;;13.78;73.35
26865;BME280;40618;51.166;10.322;2022-09-09T06:43:54;96944.28;;;13.79;73.49
26865;BME280;40618;51.166;10.322;2022-09-09T06:46:27;96944.97;;;13.82;73.22
26865;BME280;40618;51.166;10.322;2022-09-09T06:48:55;96944.81;;;13.85;73.29
26865;BME280;40618;51.166;10.322;2022-09-09T06:51:23;96947.50;;;13.84;73.01
26865;BME280;40618;51.166;10.322;2022-09-09T06:53:52;96951.00;;;13.83;73.17
26865;BME280;40618;51.166;10.322;2022-09-09T06:56:23;96946.66;;;13.83;73.31
26865;BME280;40618;51.166;10.322;2022-09-09T06:58:56;96944.72;;;13.87;73.31
26865;BME280;40618;51.166;10.322;2022-09-09T07:01:33;96940.22;;;13.91;73.30
26865;BME280;40618;51.166;10.322;2022-09-09T07:04:04;96949.56;;;13.95;73.38
26865;BME280;40618;51.166;10.322;2022-09-09T07:06:35;96935.38;;;14.00;73.36
26865;BME280;40618;51.166;10.322;2022-09-09T07:09:10;96936.19;;;14.01;73.06
26865;BME280;40618;51.166;10.322;2022-09-09T07:11:45;96938.06;;;13.99;73.22
26865;BME280;40618;51.166;10.322;2022-09-09T07:14:14;96934.53;;;14.00;73.09
26865;BME280;40618;51.166;10.322;2022-09-09T07:16:41;96936.97;;;14.03;73.18
26865;BME280;40618;51.166;10.322;2022-09-09T07:19:09;96936.06;;;14.04;73.38
26865;BME280;40618;51.166;10.322;2022-09-09T07:21:35;96935.91;;;14.07;73.04
26865;BME280;40618;51.166;10.322;2022-09-09T07:24:01;96946.38;;;14.05;73.11
26865;BME280;40618;51.166;10.322;2022-09-09T07:26:29;96945.41;;;14.08;73.24
26865;BME280;40618;51.166;10.322;2022-09-09T07:28:56;96945.22;;;14.11;73.44
26865;BME280;40618;51.166;10.322;2022-09-09T07:31:36;96943.88;;;14.20;73.51
26865;BME280;40618;51.166;10.322;2022-09-09T07:34:05;96951.22;;;14.29;73.48
26865;BME280;40618;51.166;10.322;2022-09-09T07:36:36;96948.22;;;14.37;73.22
26865;BME280;40618;51.166;10.322;2022-09-09T07:39:08;96949.66;;;14.43;72.98
26865;BME280;40618;51.166;10.322;2022-09-09T07:41:38;96959.16;;;14.44;72.99
26865;BME280;40618;51.166;10.322;2022-09-09T07:44:08;96953.84;;;14.45;73.29
26865;BME280;40618;51.166;10.322;2022-09-09T07:46:36;96954.28;;;14.53;73.01
26865;BME280;40618;51.166;10.322;2022-09-09T07:49:04;96960.84;;;14.61;73.23
26865;BME280;40618;51.166;10.322;2022-09-09T07:51:33;96966.41;;;14.70;73.29
26865;BME280;40618;51.166;10.322;2022-09-09T07:54:04;96959.78;;;14.97;73.20
26865;BME280;40618;51.166;10.322;2022-09-09T07:56:32;96962.09;;;15.17;73.20
26865;BME280;40618;51.166;10.322;2022-09-09T07:58:58;96957.25;;;15.42;73.13
26865;BME280;40618;51.166;10.322;2022-09-09T08:01:27;96959.50;;;15.48;73.01
26865;BME280;40618;51.166;10.322;2022-09-09T08:03:59;96957.91;;;15.45;72.75
26865;BME280;40618;51.166;10.322;2022-09-09T08:06:27;96971.16;;;15.56;72.94
26865;BME280;40618;51.166;10.322;2022-09-09T08:08:55;96963.00;;;15.77;73.00
26865;BME280;40618;51.166;10.322;2022-09-09T08:11:23;96965.59;;;15.93;72.63
26865;BME280;40618;51.166;10.322;2022-09-09T08:13:51;96961.69;;;16.00;72.78
26865;BME280;40618;51.166;10.322;2022-09-09T08:16:21;96962.91;;;16.09;72.63
26865;BME280;40618;51.166;10.322;2022-09-09T08:18:50;96969.88;;;16.08;72.52
26865;BME280;40618;51.166;10.322;2022-09-09T08:21:24;96958.31;;;16.13;72.40
26865;BME280;40618;51.166;10.322;2022-09-09T08:23:56;96965.72;;;16.20;72.01
26865;BME280;40618;51.166;10.322;2022-09-09T08:26:33;96961.06;;;16.26;72.24
26865;BME280;40618;51.166;10.322;2022-09-09T08:29:01;96962.34;;;16.33;72.42
26865;BME280;40618;51.166;10.322;2022-09-09T08:31:36;96963.00;;;16.36;71.90
26865;BME280;40618;51.166;10.322;2022-09-09T08:34:04;96966.56;;;16.35;72.17
26865;BME280;40618;51.166;10.322;2022-09-09T08:36:37;96962.81;;;16.39;71.80
26865;BME280;40618;51.166;10.322;2022-09-09T08:39:07;96972.06;;;16.31;71.76
26865;BME280;40618;51.166;10.322;2022-09-09T08:50:05;96971.84;;;16.63;71.57
26865;BME280;40618;51.166;10.322;2022-09-09T08:55:51;96979.03;;;16.59;71.50
26865;BME280;40618;51.166;10.322;2022-09-09T08:58:26;96979.03;;;16.73;71.44
26865;BME280;40618;51.166;10.322;2022-09-09T09:11:58;96992.44;;;16.96;70.93
26865;BME280;40618;51.166;10.322;2022-09-09T09:14:31;96994.53;;;16.91;70.69
26865;BME280;40618;51.166;10.322;2022-09-09T09:17:03;96989.53;;;16.86;71.08
26865;BME280;40618;51.166;10.322;2022-09-09T09:19:39;96998.44;;;17.25;71.29
26865;BME280;40618;51.166;10.322;2022-09-09T09:22:18;96992.00;;;17.44;70.31
26865;BME280;40618;51.166;10.322;2022-09-09T09:30:29;96995.09;;;17.64;69.72
26865;BME280;40618;51.166;10.322;2022-09-09T09:35:56;96985.78;;;17.59;70.31
26865;BME280;40618;51.166;10.322;2022-09-09T09:38:27;96990.81;;;17.75;69.70
26865;BME280;40618;51.166;10.322;2022-09-09T09:40:57;96984.94;;;17.72;69.25
26865;BME280;40618;51.166;10.322;2022-09-09T09:43:33;96984.91;;;17.59;69.19
26865;BME280;40618;51.166;10.322;2022-09-09T09:46:02;96988.25;;;17.48;69.28
26865;BME280;40618;51.166;10.322;2022-09-09T09:48:29;96992.00;;;17.44;69.48
26865;BME280;40618;51.166;10.322;2022-09-09T09:51:01;96994.75;;;17.55;69.48
26865;BME280;40618;51.166;10.322;2022-09-09T09:53:36;96987.63;;;17.57;69.05
26865;BME280;40618;51.166;10.322;2022-09-09T09:56:06;96983.03;;;17.61;69.06
26865;BME280;40618;51.166;10.322;2022-09-09T09:58:49;96983.69;;;17.90;69.32
26865;BME280;40618;51.166;10.322;2022-09-09T10:01:27;96977.28;;;17.96;68.38
26865;BME280;40618;51.166;10.322;2022-09-09T10:04:23;96976.66;;;17.78;68.36
26865;BME280;40618;51.166;10.322;2022-09-09T10:06:49;96984.03;;;17.73;68.43
26865;BME280;40618;51.166;10.322;2022-09-09T10:09:22;96992.06;;;17.70;68.48
26865;BME280;40618;51.166;10.322;2022-09-09T10:24:11;96975.25;;;18.00;67.63
26865;BME280;40618;51.166;10.322;2022-09-09T10:35:14;96960.50;;;18.12;67.40
26865;BME280;40618;51.166;10.322;2022-09-09T10:43:38;96972.47;;;17.75;67.38
26865;BME280;40618;51.166;10.322;2022-09-09T10:46:26;96962.50;;;17.55;67.56
26865;BME280;40618;51.166;10.322;2022-09-09T10:55:24;96974.34;;;17.20;67.23
26865;BME280;40618;51.166;10.322;2022-09-09T10:57:54;96962.88;;;17.36;67.08
26865;BME280;40618;51.166;10.322;2022-09-09T11:03:35;96956.47;;;17.80;67.33
26865;BME280;40618;51.166;10.322;2022-09-09T11:06:06;96962.50;;;17.95;67.26
26865;BME280;40618;51.166;10.322;2022-09-09T11:08:38;96953.38;;;18.01;67.35
26865;BME280;40618;51.166;10.322;2022-09-09T11:11:42;96956.94;;;18.00;66.92
26865;BME280;40618;51.166;10.322;2022-09-09T11:14:36;96946.03;;;18.06;67.36
26865;BME280;40618;51.166;10.322;2022-09-09T11:17:14;96947.06;;;18.16;67.28
26865;BME280;40618;51.166;10.322;2022-09-09T11:19:44;96946.84;;;18.32;67.27
26865;BME280;40618;51.166;10.322;2022-09-09T11:25:07;96941.94;;;18.77;66.47
26865;BME280;40618;51.166;10.322;2022-09-09T11:34:01;96932.19;;;18.67;65.07
26865;BME280;40618;51.166;10.322;2022-09-09T11:40:09;96949.03;;;18.51;64.89
26865;BME280;40618;51.166;10.322;2022-09-09T11:42:40;96941.78;;;18.55;65.10
26865;BME280;40618;51.166;10.322;2022-09-09T11:45:26;96945.31;;;18.67;64.77
26865;BME280;40618;51.166;10.322;2022-09-09T11:48:01;96947.28;;;18.76;64.87
26865;BME280;40618;51.166;10.322;2022-09-09T11:50:37;96939.00;;;18.82;64.59
26865;BME280;40618;51.166;10.322;2022-09-09T11:53:19;96934.22;;;18.87;64.29
26865;BME280;40618;51.166;10.322;2022-09-09T11:55:48;96942.22;;;18.99;64.19
26865;BME280;40618;51.166;10.322;2022-09-09T11:58:35;96934.81;;;19.04;63.96
26865;BME280;40618;51.166;10.322;2022-09-09T12:01:16;96931.16;;;19.06;63.50
26865;BME280;40618;51.166;10.322;2022-09-09T12:05:06;96935.06;;;19.01;63.38
26865;BME280;40618;51.166;10.322;2022-09-09T12:07:03;96932.44;;;19.01;63.37
26865;BME280;40618;51.166;10.322;2022-09-09T12:09:48;96935.72;;;18.91;63.11
26865;BME280;40618;51.166;10.322;2022-09-09T12:12:32;96933.94;;;18.92;63.16
26865;BME280;40618;51.166;10.322;2022-09-09T12:15:16;96938.44;;;18.90;63.02
26865;BME280;40618;51.166;10.322;2022-09-09T12:17:48;96935.50;;;18.82;62.87
26865;BME280;40618;51.166;10.322;2022-09-09T12:23:08;96933.22;;;18.90;63.25
26865;BME280;40618;51.166;10.322;2022-09-09T12:31:47;96939.69;;;18.97;62.63
26865;BME280;40618;51.166;10.322;2022-09-09T12:37:26;96933.09;;;19.16;62.55
26865;BME280;40618;51.166;10.322;2022-09-09T12:40:25;96943.25;;;19.20;62.52
26865;BME280;40618;51.166;10.322;2022-09-09T12:42:56;96928.59;;;19.18;61.92
26865;BME280;40618;51.166;10.322;2022-09-09T12:45:25;96952.28;;;19.16;61.93
26865;BME280;40618;51.166;10.322;2022-09-09T12:48:09;96942.44;;;19.20;61.42
26865;BME280;40618;51.166;10.322;2022-09-09T12:50:45;96943.59;;;19.16;61.22
26865;BME280;40618;51.166;10.322;2022-09-09T12:53:30;96942.25;;;19.10;61.21
26865;BME280;40618;51.166;10.322;2022-09-09T12:56:06;96942.25;;;19.10;60.87
26865;BME280;40618;51.166;10.322;2022-09-09T12:58:36;96933.53;;;19.09;60.97
26865;BME280;40618;51.166;10.322;2022-09-09T13:01:04;96937.13;;;19.08;60.88
26865;BME280;40618;51.166;10.322;2022-09-09T13:03:32;96935.97;;;19.13;60.80
26865;BME280;40618;51.166;10.322;2022-09-09T13:06:16;96922.50;;;19.17;60.96
26865;BME280;40618;51.166;10.322;2022-09-09T13:08:45;96915.13;;;19.22;60.91
26865;BME280;40618;51.166;10.322;2022-09-09T13:11:15;96916.06;;;19.21;60.91
26865;BME280;40618;51.166;10.322;2022-09-09T13:13:50;96912.38;;;19.24;60.77
26865;BME280;40618;51.166;10.322;2022-09-09T13:16:30;96900.31;;;19.21;60.79
26865;BME280;40618;51.166;10.322;2022-09-09T13:19:00;96897.47;;;19.24;60.77
26865;BME280;40618;51.166;10.322;2022-09-09T13:21:39;96904.16;;;19.28;60.86
26865;BME280;40618;51.166;10.322;2022-09-09T13:24:07;96896.44;;;19.38;60.82
26865;BME280;40618;51.166;10.322;2022-09-09T13:26:57;96895.84;;;19.46;60.33
26865;BME280;40618;51.166;10.322;2022-09-09T13:29:27;96900.78;;;19.51;60.13
26865;BME280;40618;51.166;10.322;2022-09-09T13:32:03;96889.09;;;19.55;59.67
26865;BME280;40618;51.166;10.322;2022-09-09T13:34:53;96882.16;;;19.54;59.68
26865;BME280;40618;51.166;10.322;2022-09-09T13:37:34;96885.59;;;19.54;59.44
26865;BME280;40618;51.166;10.322;2022-09-09T13:40:03;96880.72;;;19.61;59.30
26865;BME280;40618;51.166;10.322;2022-09-09T13:42:38;96889.59;;;19.71;59.07
26865;BME280;40618;51.166;10.322;2022-09-09T13:45:17;96882.53;;;19.72;58.42
26865;BME280;40618;51.166;10.322;2022-09-09T13:47:45;96882.31;;;19.75;58.22
26865;BME280;40618;51.166;10.322;2022-09-09T13:50:19;96889.25;;;19.76;57.97
26865;BME280;40618;51.166;10.322;2022-09-09T13:52:49;96893.09;;;19.83;57.63
26865;BME280;40618;51.166;10.322;2022-09-09T13:55:17;96893.59;;;19.88;57.47
26865;BME280;40618;51.166;10.322;2022-09-09T13:58:00;96889.19;;;19.89;57.10
26865;BME280;40618;51.166;10.322;2022-09-09T14:00:30;96889.28;;;19.87;56.68
26865;BME280;40618;51.166;10.322;2022-09-09T14:02:58;96883.56;;;19.82;56.87
26865;BME280;40618;51.166;10.322;2022-09-09T14:05:26;96885.94;;;19.85;56.79
26865;BME280;40618;51.166;10.322;2022-09-09T14:07:52;96882.38;;;19.86;56.41
26865;BME280;40618;51.166;10.322;2022-09-09T14:10:18;96873.63;;;19.86;56.26
26865;BME280;40618;51.166;10.322;2022-09-09T14:12:44;96882.94;;;19.90;56.40
26865;BME280;40618;51.166;10.322;2022-09-09T14:15:10;96881.19;;;20.02;55.97
26865;BME280;40618;51.166;10.322;2022-09-09T14:17:37;96876.41;;;20.07;56.00
26865;BME280;40618;51.166;10.322;2022-09-09T14:20:07;96879.50;;;20.12;55.76
26865;BME280;40618;51.166;10.322;2022-09-09T14:22:33;96880.47;;;20.11;55.63
26865;BME280;40618;51.166;10.322;2022-09-09T14:24:59;96885.09;;;20.07;55.63
26865;BME280;40618;51.166;10.322;2022-09-09T14:27:25;96874.47;;;19.98;55.71
26865;BME280;40618;51.166;10.322;2022-09-09T14:29:55;96884.38;;;19.94;55.70
26865;BME280;40618;51.166;10.322;2022-09-09T14:32:21;96889.06;;;19.90;55.73
26865;BME280;40618;51.166;10.322;2022-09-09T14:34:47;96888.09;;;19.91;55.75
26865;BME280;40618;51.166;10.322;2022-09-09T14:37:16;96892.38;;;19.92;55.65
26865;BME280;40618;51.166;10.322;2022-09-09T14:39:43;96885.44;;;19.91;55.84
26865;BME280;40618;51.166;10.322;2022-09-09T14:42:10;96876.63;;;19.92;55.67
26865;BME280;40618;51.166;10.322;2022-09-09T14:44:36;96880.44;;;19.88;55.64
26865;BME280;40618;51.166;10.322;2022-09-09T14:47:04;96886.31;;;19.81;55.40
26865;BME280;40618;51.166;10.322;2022-09-09T14:49:30;96877.91;;;19.75;55.41
26865;BME280;40618;51.166;10.322;2022-09-09T14:51:56;96881.34;;;19.76;55.43
26865;BME280;40618;51.166;10.322;2022-09-09T14:54:22;96873.22;;;19.79;55.53
26865;BME280;40618;51.166;10.322;2022-09-09T14:56:48;96873.06;;;19.82;55.34
26865;BME280;40618;51.166;10.322;2022-09-09T14:59:14;96878.44;;;19.92;55.12
26865;BME280;40618;51.166;10.322;2022-09-09T15:01:39;96878.66;;;19.89;55.18
26865;BME280;40618;51.166;10.322;2022-09-09T15:04:06;96876.63;;;19.81;54.77
26865;BME280;40618;51.166;10.322;2022-09-09T15:06:34;96876.81;;;19.67;54.47
26865;BME280;40618;51.166;10.322;2022-09-09T15:09:05;96880.16;;;19.57;54.67
26865;BME280;40618;51.166;10.322;2022-09-09T15:11:33;96881.09;;;19.56;54.66
26865;BME280;40618;51.166;10.322;2022-09-09T15:14:08;96872.63;;;19.64;54.54
26865;BME280;40618;51.166;10.322;2022-09-09T15:16:34;96886.25;;;19.69;54.60
26865;BME280;40618;51.166;10.322;2022-09-09T15:19:01;96880.75;;;19.72;54.21
26865;BME280;40618;51.166;10.322;2022-09-09T15:21:30;96888.06;;;19.80;54.43
26865;BME280;40618;51.166;10.322;2022-09-09T15:23:58;96884.59;;;19.79;54.17
26865;BME280;40618;51.166;10.322;2022-09-09T15:26:25;96877.78;;;19.77;54.09
26865;BME280;40618;51.166;10.322;2022-09-09T15:28:51;96873.72;;;19.73;53.87
26865;BME280;40618;51.166;10.322;2022-09-09T15:31:18;96880.50;;;19.64;53.84
26865;BME280;40618;51.166;10.322;2022-09-09T15:33:52;96874.91;;;19.57;54.05
26865;BME280;40618;51.166;10.322;2022-09-09T15:36:27;96871.66;;;19.54;53.99
26865;BME280;40618;51.166;10.322;2022-09-09T15:38:57;96872.47;;;19.54;54.08